»·PEaware :: SE-LPY KSBP-KSMX

SE-LPY :: KSBP-KSMX

FLIGHT INFORMATION

Flight Status: Arrived
Operator: Privately registered:
Sweden
More flights under this callsign
Pilot: Markus A. (5787)
Aircraft: CESSNA 172 SKYHAWK
(C172)
More flights by this aircraft type
Origin: KSBP San Luis Co Regl
United States
Destination: KSMX Santa Maria Pub/Capt Hancock
United States
More flights between these airports :: More routes between these airports
Route: DCT
File this flight plan on PilotEdge
Remarks: Traning for CAT 4
Altitude:
(Current/Filed)
3,000ft
Speed:
(Current/Filed)
125kts
Departed: 23-Sep-17 10:31 AM
Arrived: 23-Sep-17 10:51 AM
Distance/Time
Traveled:
22nm/0:20
Distance/Time
To Go:
Arrived

Flight Plot

Page will automatically refresh every two minutes.


Map Options




Map Legend


Flown Route
Filed Route
Departure Airport
Arrival Airport
Navaid (VOR, NDB)
Fix

Horizontal Profiles

Position Reports

Time Latitude Longitude Heading Altitude Ground
Speed
23-Sep-17 10:16 35.238321 -120.636960 271 215ft 0kts
23-Sep-17 10:17 35.238321 -120.636961 271 215ft 0kts
23-Sep-17 10:18 35.238321 -120.636962 271 215ft 0kts
23-Sep-17 10:19 35.238321 -120.636964 271 215ft 0kts
23-Sep-17 10:20 35.238321 -120.636965 271 215ft 0kts
23-Sep-17 10:21 35.238321 -120.636966 271 215ft 0kts
23-Sep-17 10:22 35.238321 -120.636968 271 215ft 0kts
23-Sep-17 10:23 35.238322 -120.636969 271 215ft 0kts
23-Sep-17 10:24 35.238322 -120.636970 271 215ft 0kts
23-Sep-17 10:25 35.238322 -120.636972 271 215ft 0kts
23-Sep-17 10:26 35.238322 -120.636973 271 215ft 0kts
23-Sep-17 10:27 35.238322 -120.636974 271 215ft 0kts
23-Sep-17 10:28 35.238322 -120.636976 271 215ft 0kts
23-Sep-17 10:29 35.238322 -120.636977 271 215ft 0kts
23-Sep-17 10:30 35.238322 -120.636979 271 215ft 0kts
23-Sep-17 10:31 35.237906 -120.638210 218 215ft 13kts
23-Sep-17 10:32 35.234580 -120.634265 125 215ft 26kts
23-Sep-17 10:33 35.233212 -120.632654 216 215ft 0kts
23-Sep-17 10:34 35.233211 -120.632654 216 215ft 0kts
23-Sep-17 10:35 35.233938 -120.635189 305 215ft 50kts
23-Sep-17 10:36 35.241785 -120.660058 249 950ft 100kts
23-Sep-17 10:37 35.217980 -120.660740 152 1409ft 106kts
23-Sep-17 10:38 35.187634 -120.656400 186 1797ft 114kts
23-Sep-17 10:39 35.159345 -120.644572 156 2258ft 109kts
23-Sep-17 10:40 35.130957 -120.630968 157 2965ft 108kts
23-Sep-17 10:41 35.103783 -120.618505 156 3005ft 107kts
23-Sep-17 10:42 35.075868 -120.610940 178 3000ft 101kts
23-Sep-17 10:43 35.047567 -120.610049 177 3007ft 104kts
23-Sep-17 10:44 35.018185 -120.608992 178 3012ft 109kts
23-Sep-17 10:45 34.988988 -120.604870 140 2979ft 102kts
23-Sep-17 10:46 34.966224 -120.582112 138 2259ft 103kts
23-Sep-17 10:47 34.958151 -120.552605 78 1534ft 104kts
23-Sep-17 10:48 34.959915 -120.520772 100 1503ft 98kts
23-Sep-17 10:49 34.948583 -120.490994 123 1510ft 97kts
23-Sep-17 10:50 34.933788 -120.463727 131 1508ft 87kts
23-Sep-17 10:51 34.915326 -120.439928 137 1229ft 86kts
23-Sep-17 10:52 34.897596 -120.421589 146 1345ft 79kts
23-Sep-17 10:53 34.883229 -120.429203 265 970ft 72kts
23-Sep-17 10:54 34.894658 -120.447991 313 266ft 54kts
23-Sep-17 10:55 34.898142 -120.450277 1 264ft 8kts
23-Sep-17 10:56 34.900765 -120.450016 261 264ft 0kts
23-Sep-17 10:57 34.900765 -120.450017 261 264ft 0kts
23-Sep-17 10:58 34.900764 -120.450018 261 264ft 0kts
23-Sep-17 10:59 34.900764 -120.450020 261 264ft 0kts
23-Sep-17 11:00 34.900764 -120.450021 261 264ft 0kts
23-Sep-17 11:01 34.900764 -120.450022 261 264ft 0kts
23-Sep-17 11:02 34.900764 -120.450024 261 264ft 0kts
23-Sep-17 11:03 34.900764 -120.450025 261 264ft 0kts
23-Sep-17 11:04 34.900763 -120.450026 261 264ft 0kts
23-Sep-17 11:05 34.900763 -120.450027 261 264ft 0kts
23-Sep-17 11:06 34.900763 -120.450029 261 264ft 0kts
23-Sep-17 11:07 34.900763 -120.450030 261 264ft 0kts
23-Sep-17 11:08 34.900763 -120.450031 261 264ft 0kts
23-Sep-17 11:09 34.900763 -120.450032 261 264ft 0kts

Navigation Log

Ident Type
1. KSBP Airport
2. KSMX Airport